sensor_id;sensor_type;location;lat;lon;timestamp;P1;durP1;ratioP1;P2;durP2;ratioP2
30553;SDS011;17335;50.720;7.452;2023-08-31T00:02:23;14.43;;;3.38;;
30553;SDS011;17335;50.720;7.452;2023-08-31T00:04:51;6.10;;;2.70;;
30553;SDS011;17335;50.720;7.452;2023-08-31T00:07:21;8.48;;;3.05;;
30553;SDS011;17335;50.720;7.452;2023-08-31T00:09:48;7.45;;;2.70;;
30553;SDS011;17335;50.720;7.452;2023-08-31T00:12:15;7.55;;;2.72;;
30553;SDS011;17335;50.720;7.452;2023-08-31T00:14:41;5.50;;;2.20;;
30553;SDS011;17335;50.720;7.452;2023-08-31T00:17:09;4.88;;;2.80;;
30553;SDS011;17335;50.720;7.452;2023-08-31T00:19:35;11.73;;;2.58;;
30553;SDS011;17335;50.720;7.452;2023-08-31T00:22:02;3.95;;;2.53;;
30553;SDS011;17335;50.720;7.452;2023-08-31T00:24:31;7.72;;;2.50;;
30553;SDS011;17335;50.720;7.452;2023-08-31T00:26:59;6.38;;;2.78;;
30553;SDS011;17335;50.720;7.452;2023-08-31T00:29:27;6.93;;;3.00;;
30553;SDS011;17335;50.720;7.452;2023-08-31T00:31:56;4.65;;;2.60;;
30553;SDS011;17335;50.720;7.452;2023-08-31T00:34:23;7.65;;;2.75;;
30553;SDS011;17335;50.720;7.452;2023-08-31T00:36:49;8.88;;;2.58;;
30553;SDS011;17335;50.720;7.452;2023-08-31T00:39:16;6.45;;;2.90;;
30553;SDS011;17335;50.720;7.452;2023-08-31T00:41:47;10.23;;;3.03;;
30553;SDS011;17335;50.720;7.452;2023-08-31T00:44:14;9.95;;;2.78;;
30553;SDS011;17335;50.720;7.452;2023-08-31T00:46:42;7.28;;;3.08;;
30553;SDS011;17335;50.720;7.452;2023-08-31T00:49:08;5.38;;;2.58;;
30553;SDS011;17335;50.720;7.452;2023-08-31T00:51:35;6.65;;;2.85;;
30553;SDS011;17335;50.720;7.452;2023-08-31T00:54:03;8.82;;;2.75;;
30553;SDS011;17335;50.720;7.452;2023-08-31T00:56:32;5.45;;;2.70;;
30553;SDS011;17335;50.720;7.452;2023-08-31T00:58:58;5.60;;;2.53;;
30553;SDS011;17335;50.720;7.452;2023-08-31T01:01:27;5.25;;;2.60;;
30553;SDS011;17335;50.720;7.452;2023-08-31T01:04:06;8.77;;;2.92;;
30553;SDS011;17335;50.720;7.452;2023-08-31T01:12:06;6.45;;;2.67;;
30553;SDS011;17335;50.720;7.452;2023-08-31T01:14:45;5.88;;;2.70;;
30553;SDS011;17335;50.720;7.452;2023-08-31T01:17:19;6.75;;;2.60;;
30553;SDS011;17335;50.720;7.452;2023-08-31T01:19:48;7.20;;;2.75;;
30553;SDS011;17335;50.720;7.452;2023-08-31T01:22:24;9.23;;;2.75;;
30553;SDS011;17335;50.720;7.452;2023-08-31T01:24:58;6.05;;;2.30;;
30553;SDS011;17335;50.720;7.452;2023-08-31T01:27:27;7.07;;;2.53;;
30553;SDS011;17335;50.720;7.452;2023-08-31T01:29:54;7.35;;;2.90;;
30553;SDS011;17335;50.720;7.452;2023-08-31T01:32:21;6.00;;;2.58;;
30553;SDS011;17335;50.720;7.452;2023-08-31T01:34:47;5.93;;;2.72;;
30553;SDS011;17335;50.720;7.452;2023-08-31T01:37:24;8.65;;;2.60;;
30553;SDS011;17335;50.720;7.452;2023-08-31T01:40:07;5.32;;;2.35;;
30553;SDS011;17335;50.720;7.452;2023-08-31T01:42:58;6.13;;;3.00;;
30553;SDS011;17335;50.720;7.452;2023-08-31T01:45:27;6.53;;;2.60;;
30553;SDS011;17335;50.720;7.452;2023-08-31T01:47:54;6.13;;;2.88;;
30553;SDS011;17335;50.720;7.452;2023-08-31T01:50:22;5.07;;;2.78;;
30553;SDS011;17335;50.720;7.452;2023-08-31T01:52:49;5.35;;;2.83;;
30553;SDS011;17335;50.720;7.452;2023-08-31T01:55:15;5.95;;;2.75;;
30553;SDS011;17335;50.720;7.452;2023-08-31T01:57:42;6.97;;;3.08;;
30553;SDS011;17335;50.720;7.452;2023-08-31T02:00:09;7.60;;;2.50;;
30553;SDS011;17335;50.720;7.452;2023-08-31T02:02:36;6.00;;;2.90;;
30553;SDS011;17335;50.720;7.452;2023-08-31T02:05:04;8.25;;;2.97;;
30553;SDS011;17335;50.720;7.452;2023-08-31T02:07:32;6.18;;;3.60;;
30553;SDS011;17335;50.720;7.452;2023-08-31T02:09:58;5.25;;;2.90;;
30553;SDS011;17335;50.720;7.452;2023-08-31T02:12:25;5.75;;;2.80;;
30553;SDS011;17335;50.720;7.452;2023-08-31T02:14:51;6.32;;;3.10;;
30553;SDS011;17335;50.720;7.452;2023-08-31T02:17:18;8.77;;;2.88;;
30553;SDS011;17335;50.720;7.452;2023-08-31T02:19:44;5.35;;;3.25;;
30553;SDS011;17335;50.720;7.452;2023-08-31T02:22:11;6.03;;;3.05;;
30553;SDS011;17335;50.720;7.452;2023-08-31T02:24:37;7.55;;;3.15;;
30553;SDS011;17335;50.720;7.452;2023-08-31T02:27:04;5.45;;;2.95;;
30553;SDS011;17335;50.720;7.452;2023-08-31T02:29:30;5.47;;;2.90;;
30553;SDS011;17335;50.720;7.452;2023-08-31T02:31:57;7.65;;;3.08;;
30553;SDS011;17335;50.720;7.452;2023-08-31T02:34:25;6.15;;;2.83;;
30553;SDS011;17335;50.720;7.452;2023-08-31T02:36:51;11.93;;;2.97;;
30553;SDS011;17335;50.720;7.452;2023-08-31T02:39:18;6.85;;;2.95;;
30553;SDS011;17335;50.720;7.452;2023-08-31T02:41:44;6.72;;;2.95;;
30553;SDS011;17335;50.720;7.452;2023-08-31T02:44:11;10.35;;;2.53;;
30553;SDS011;17335;50.720;7.452;2023-08-31T02:46:37;6.30;;;2.53;;
30553;SDS011;17335;50.720;7.452;2023-08-31T02:49:05;6.57;;;2.60;;
30553;SDS011;17335;50.720;7.452;2023-08-31T02:51:31;5.10;;;2.65;;
30553;SDS011;17335;50.720;7.452;2023-08-31T02:53:58;6.57;;;2.58;;
30553;SDS011;17335;50.720;7.452;2023-08-31T02:56:24;3.75;;;2.40;;
30553;SDS011;17335;50.720;7.452;2023-08-31T02:58:50;5.10;;;2.58;;
30553;SDS011;17335;50.720;7.452;2023-08-31T03:01:17;7.22;;;2.58;;
30553;SDS011;17335;50.720;7.452;2023-08-31T03:03:44;5.97;;;2.40;;
30553;SDS011;17335;50.720;7.452;2023-08-31T03:06:12;7.40;;;2.88;;
30553;SDS011;17335;50.720;7.452;2023-08-31T03:08:38;7.07;;;2.60;;
30553;SDS011;17335;50.720;7.452;2023-08-31T03:11:07;4.10;;;2.30;;
30553;SDS011;17335;50.720;7.452;2023-08-31T03:13:33;4.78;;;2.83;;
30553;SDS011;17335;50.720;7.452;2023-08-31T03:16:00;7.70;;;3.13;;
30553;SDS011;17335;50.720;7.452;2023-08-31T03:18:27;9.02;;;2.88;;
30553;SDS011;17335;50.720;7.452;2023-08-31T03:20:56;14.05;;;3.00;;
30553;SDS011;17335;50.720;7.452;2023-08-31T03:23:22;6.10;;;2.88;;
30553;SDS011;17335;50.720;7.452;2023-08-31T03:28:22;7.63;;;2.80;;
30553;SDS011;17335;50.720;7.452;2023-08-31T03:30:55;8.15;;;3.33;;
30553;SDS011;17335;50.720;7.452;2023-08-31T03:33:23;6.13;;;3.38;;
30553;SDS011;17335;50.720;7.452;2023-08-31T03:35:49;4.25;;;2.80;;
30553;SDS011;17335;50.720;7.452;2023-08-31T03:38:16;7.63;;;3.53;;
30553;SDS011;17335;50.720;7.452;2023-08-31T03:40:43;5.45;;;3.10;;
30553;SDS011;17335;50.720;7.452;2023-08-31T03:43:10;8.88;;;3.25;;
30553;SDS011;17335;50.720;7.452;2023-08-31T03:45:37;6.13;;;3.40;;
30553;SDS011;17335;50.720;7.452;2023-08-31T03:48:03;5.18;;;3.10;;
30553;SDS011;17335;50.720;7.452;2023-08-31T03:50:31;7.00;;;4.00;;
30553;SDS011;17335;50.720;7.452;2023-08-31T03:52:58;7.20;;;3.58;;
30553;SDS011;17335;50.720;7.452;2023-08-31T03:55:24;10.13;;;3.67;;
30553;SDS011;17335;50.720;7.452;2023-08-31T03:57:51;7.50;;;3.88;;
30553;SDS011;17335;50.720;7.452;2023-08-31T04:00:18;11.13;;;4.07;;
30553;SDS011;17335;50.720;7.452;2023-08-31T04:02:44;6.22;;;4.35;;
30553;SDS011;17335;50.720;7.452;2023-08-31T04:05:11;6.70;;;3.63;;
30553;SDS011;17335;50.720;7.452;2023-08-31T04:07:37;7.78;;;3.75;;
30553;SDS011;17335;50.720;7.452;2023-08-31T04:10:04;6.10;;;3.80;;
30553;SDS011;17335;50.720;7.452;2023-08-31T04:12:31;6.55;;;3.70;;
30553;SDS011;17335;50.720;7.452;2023-08-31T04:14:58;6.70;;;4.35;;
30553;SDS011;17335;50.720;7.452;2023-08-31T04:17:24;7.88;;;4.10;;
30553;SDS011;17335;50.720;7.452;2023-08-31T04:19:51;5.97;;;3.50;;
30553;SDS011;17335;50.720;7.452;2023-08-31T04:22:18;6.53;;;3.63;;
30553;SDS011;17335;50.720;7.452;2023-08-31T04:24:44;7.63;;;4.00;;
30553;SDS011;17335;50.720;7.452;2023-08-31T04:27:11;8.63;;;3.50;;
30553;SDS011;17335;50.720;7.452;2023-08-31T04:29:38;4.72;;;3.22;;
30553;SDS011;17335;50.720;7.452;2023-08-31T04:32:05;7.35;;;3.60;;
30553;SDS011;17335;50.720;7.452;2023-08-31T04:34:31;5.40;;;3.42;;
30553;SDS011;17335;50.720;7.452;2023-08-31T04:36:58;8.55;;;3.83;;
30553;SDS011;17335;50.720;7.452;2023-08-31T04:39:25;7.55;;;3.47;;
30553;SDS011;17335;50.720;7.452;2023-08-31T04:41:53;11.68;;;3.75;;
30553;SDS011;17335;50.720;7.452;2023-08-31T04:44:20;4.65;;;2.97;;
30553;SDS011;17335;50.720;7.452;2023-08-31T04:46:47;7.97;;;3.65;;
30553;SDS011;17335;50.720;7.452;2023-08-31T04:49:13;9.02;;;3.50;;
30553;SDS011;17335;50.720;7.452;2023-08-31T04:51:40;7.15;;;3.70;;
30553;SDS011;17335;50.720;7.452;2023-08-31T04:54:08;6.25;;;3.50;;
30553;SDS011;17335;50.720;7.452;2023-08-31T04:56:37;5.93;;;3.45;;
30553;SDS011;17335;50.720;7.452;2023-08-31T04:59:04;6.45;;;3.20;;
30553;SDS011;17335;50.720;7.452;2023-08-31T05:01:31;6.28;;;3.35;;
30553;SDS011;17335;50.720;7.452;2023-08-31T05:03:58;8.52;;;3.55;;
30553;SDS011;17335;50.720;7.452;2023-08-31T05:06:25;6.40;;;3.35;;
30553;SDS011;17335;50.720;7.452;2023-08-31T05:08:53;7.18;;;3.60;;
30553;SDS011;17335;50.720;7.452;2023-08-31T05:11:19;5.65;;;3.22;;
30553;SDS011;17335;50.720;7.452;2023-08-31T05:13:46;6.18;;;3.42;;
30553;SDS011;17335;50.720;7.452;2023-08-31T05:16:14;5.85;;;3.17;;
30553;SDS011;17335;50.720;7.452;2023-08-31T05:18:41;8.52;;;2.83;;
30553;SDS011;17335;50.720;7.452;2023-08-31T05:21:08;6.25;;;2.95;;
30553;SDS011;17335;50.720;7.452;2023-08-31T05:23:34;7.85;;;3.50;;
30553;SDS011;17335;50.720;7.452;2023-08-31T05:26:01;5.57;;;3.00;;
30553;SDS011;17335;50.720;7.452;2023-08-31T05:28:28;4.72;;;3.08;;
30553;SDS011;17335;50.720;7.452;2023-08-31T05:31:01;7.57;;;3.47;;
30553;SDS011;17335;50.720;7.452;2023-08-31T05:33:29;9.00;;;3.28;;
30553;SDS011;17335;50.720;7.452;2023-08-31T05:36:00;11.07;;;3.05;;
30553;SDS011;17335;50.720;7.452;2023-08-31T05:38:29;5.88;;;3.05;;
30553;SDS011;17335;50.720;7.452;2023-08-31T05:41:10;6.28;;;3.05;;
30553;SDS011;17335;50.720;7.452;2023-08-31T05:43:37;7.30;;;3.50;;
30553;SDS011;17335;50.720;7.452;2023-08-31T05:46:07;6.53;;;3.15;;
30553;SDS011;17335;50.720;7.452;2023-08-31T05:48:34;6.97;;;3.00;;
30553;SDS011;17335;50.720;7.452;2023-08-31T05:51:02;5.22;;;3.20;;
30553;SDS011;17335;50.720;7.452;2023-08-31T05:53:33;7.47;;;3.15;;
30553;SDS011;17335;50.720;7.452;2023-08-31T05:56:00;5.70;;;2.88;;
30553;SDS011;17335;50.720;7.452;2023-08-31T05:58:31;7.05;;;2.97;;
30553;SDS011;17335;50.720;7.452;2023-08-31T06:01:02;6.47;;;3.00;;
30553;SDS011;17335;50.720;7.452;2023-08-31T06:03:29;7.03;;;3.08;;
30553;SDS011;17335;50.720;7.452;2023-08-31T06:05:57;6.97;;;3.28;;
30553;SDS011;17335;50.720;7.452;2023-08-31T06:08:25;9.05;;;2.70;;
30553;SDS011;17335;50.720;7.452;2023-08-31T06:10:51;4.75;;;2.35;;
30553;SDS011;17335;50.720;7.452;2023-08-31T06:13:18;6.25;;;2.55;;
30553;SDS011;17335;50.720;7.452;2023-08-31T06:15:45;5.78;;;2.75;;
30553;SDS011;17335;50.720;7.452;2023-08-31T06:18:11;5.53;;;2.53;;
30553;SDS011;17335;50.720;7.452;2023-08-31T06:20:38;5.88;;;2.72;;
30553;SDS011;17335;50.720;7.452;2023-08-31T06:23:05;9.15;;;2.85;;
30553;SDS011;17335;50.720;7.452;2023-08-31T06:25:31;5.97;;;2.40;;
30553;SDS011;17335;50.720;7.452;2023-08-31T06:27:58;6.38;;;2.53;;
30553;SDS011;17335;50.720;7.452;2023-08-31T06:30:24;10.57;;;2.10;;
30553;SDS011;17335;50.720;7.452;2023-08-31T06:32:52;10.35;;;2.90;;
30553;SDS011;17335;50.720;7.452;2023-08-31T06:35:18;9.52;;;3.10;;
30553;SDS011;17335;50.720;7.452;2023-08-31T06:37:47;5.35;;;2.22;;
30553;SDS011;17335;50.720;7.452;2023-08-31T06:40:13;5.13;;;2.67;;
30553;SDS011;17335;50.720;7.452;2023-08-31T06:42:40;6.18;;;2.70;;
30553;SDS011;17335;50.720;7.452;2023-08-31T06:45:07;6.03;;;2.97;;
30553;SDS011;17335;50.720;7.452;2023-08-31T06:47:34;5.50;;;2.65;;
30553;SDS011;17335;50.720;7.452;2023-08-31T06:50:01;5.95;;;2.80;;
30553;SDS011;17335;50.720;7.452;2023-08-31T06:52:29;7.43;;;3.40;;
30553;SDS011;17335;50.720;7.452;2023-08-31T06:54:58;6.57;;;2.67;;
30553;SDS011;17335;50.720;7.452;2023-08-31T06:57:25;4.32;;;2.13;;
30553;SDS011;17335;50.720;7.452;2023-08-31T06:59:53;5.88;;;3.33;;
30553;SDS011;17335;50.720;7.452;2023-08-31T07:02:20;4.68;;;2.47;;
30553;SDS011;17335;50.720;7.452;2023-08-31T07:04:52;5.28;;;2.40;;
30553;SDS011;17335;50.720;7.452;2023-08-31T07:07:18;5.82;;;2.67;;
30553;SDS011;17335;50.720;7.452;2023-08-31T07:09:45;5.07;;;2.28;;
30553;SDS011;17335;50.720;7.452;2023-08-31T07:12:13;7.03;;;2.40;;
30553;SDS011;17335;50.720;7.452;2023-08-31T07:14:40;7.68;;;2.38;;
30553;SDS011;17335;50.720;7.452;2023-08-31T07:17:07;5.95;;;2.60;;
30553;SDS011;17335;50.720;7.452;2023-08-31T07:19:37;6.07;;;2.47;;
30553;SDS011;17335;50.720;7.452;2023-08-31T07:22:03;3.85;;;2.13;;
30553;SDS011;17335;50.720;7.452;2023-08-31T07:24:33;6.32;;;2.63;;
30553;SDS011;17335;50.720;7.452;2023-08-31T07:27:03;6.05;;;2.63;;
30553;SDS011;17335;50.720;7.452;2023-08-31T07:29:30;3.60;;;2.25;;
30553;SDS011;17335;50.720;7.452;2023-08-31T07:31:57;7.47;;;2.38;;
30553;SDS011;17335;50.720;7.452;2023-08-31T07:34:24;5.70;;;2.50;;
30553;SDS011;17335;50.720;7.452;2023-08-31T07:36:50;7.65;;;2.17;;
30553;SDS011;17335;50.720;7.452;2023-08-31T07:39:17;7.55;;;2.17;;
30553;SDS011;17335;50.720;7.452;2023-08-31T07:41:46;3.97;;;1.67;;
30553;SDS011;17335;50.720;7.452;2023-08-31T07:44:14;2.80;;;1.50;;
30553;SDS011;17335;50.720;7.452;2023-08-31T07:46:43;4.68;;;1.90;;
30553;SDS011;17335;50.720;7.452;2023-08-31T07:49:10;5.63;;;2.28;;
30553;SDS011;17335;50.720;7.452;2023-08-31T07:51:36;3.40;;;1.90;;
30553;SDS011;17335;50.720;7.452;2023-08-31T07:54:03;4.72;;;2.20;;
30553;SDS011;17335;50.720;7.452;2023-08-31T07:56:30;5.28;;;2.08;;
30553;SDS011;17335;50.720;7.452;2023-08-31T07:58:56;3.58;;;1.67;;
30553;SDS011;17335;50.720;7.452;2023-08-31T08:01:23;4.60;;;2.10;;
30553;SDS011;17335;50.720;7.452;2023-08-31T08:03:49;7.35;;;1.92;;
30553;SDS011;17335;50.720;7.452;2023-08-31T08:06:16;7.05;;;2.17;;
30553;SDS011;17335;50.720;7.452;2023-08-31T08:08:43;2.85;;;1.52;;
30553;SDS011;17335;50.720;7.452;2023-08-31T08:11:10;3.20;;;1.73;;
30553;SDS011;17335;50.720;7.452;2023-08-31T08:13:36;7.22;;;1.92;;
30553;SDS011;17335;50.720;7.452;2023-08-31T08:16:03;5.60;;;1.52;;
30553;SDS011;17335;50.720;7.452;2023-08-31T08:18:30;7.25;;;1.90;;
30553;SDS011;17335;50.720;7.452;2023-08-31T08:20:57;3.60;;;1.70;;
30553;SDS011;17335;50.720;7.452;2023-08-31T08:23:23;6.63;;;1.70;;
30553;SDS011;17335;50.720;7.452;2023-08-31T08:25:51;8.80;;;2.15;;
30553;SDS011;17335;50.720;7.452;2023-08-31T08:28:17;4.47;;;1.80;;
30553;SDS011;17335;50.720;7.452;2023-08-31T08:30:44;6.75;;;2.17;;
30553;SDS011;17335;50.720;7.452;2023-08-31T08:33:10;4.93;;;2.20;;
30553;SDS011;17335;50.720;7.452;2023-08-31T08:35:38;4.75;;;1.70;;
30553;SDS011;17335;50.720;7.452;2023-08-31T08:38:04;4.13;;;1.75;;
30553;SDS011;17335;50.720;7.452;2023-08-31T08:40:31;3.60;;;1.75;;
30553;SDS011;17335;50.720;7.452;2023-08-31T08:43:00;3.88;;;1.95;;
30553;SDS011;17335;50.720;7.452;2023-08-31T08:45:30;5.50;;;2.03;;
30553;SDS011;17335;50.720;7.452;2023-08-31T08:48:03;6.45;;;2.15;;
30553;SDS011;17335;50.720;7.452;2023-08-31T08:50:32;5.70;;;2.00;;
30553;SDS011;17335;50.720;7.452;2023-08-31T08:53:01;5.53;;;2.00;;
30553;SDS011;17335;50.720;7.452;2023-08-31T08:55:28;4.30;;;1.80;;
30553;SDS011;17335;50.720;7.452;2023-08-31T08:57:55;3.97;;;1.60;;
30553;SDS011;17335;50.720;7.452;2023-08-31T09:00:22;3.90;;;1.77;;
30553;SDS011;17335;50.720;7.452;2023-08-31T09:02:48;4.03;;;1.90;;
30553;SDS011;17335;50.720;7.452;2023-08-31T09:05:15;9.40;;;1.73;;
30553;SDS011;17335;50.720;7.452;2023-08-31T09:10:45;4.75;;;1.65;;
30553;SDS011;17335;50.720;7.452;2023-08-31T09:13:12;2.47;;;1.40;;
30553;SDS011;17335;50.720;7.452;2023-08-31T09:15:40;3.72;;;1.60;;
30553;SDS011;17335;50.720;7.452;2023-08-31T09:18:30;2.72;;;1.50;;
30553;SDS011;17335;50.720;7.452;2023-08-31T09:21:01;3.10;;;1.50;;
30553;SDS011;17335;50.720;7.452;2023-08-31T09:23:29;7.10;;;1.52;;
30553;SDS011;17335;50.720;7.452;2023-08-31T09:25:56;8.00;;;1.80;;
30553;SDS011;17335;50.720;7.452;2023-08-31T09:28:24;8.30;;;1.55;;
30553;SDS011;17335;50.720;7.452;2023-08-31T09:30:53;4.15;;;1.25;;
30553;SDS011;17335;50.720;7.452;2023-08-31T09:33:34;4.43;;;1.50;;
30553;SDS011;17335;50.720;7.452;2023-08-31T09:36:03;2.35;;;1.20;;
30553;SDS011;17335;50.720;7.452;2023-08-31T09:38:40;3.67;;;1.40;;
30553;SDS011;17335;50.720;7.452;2023-08-31T09:41:11;4.60;;;1.30;;
30553;SDS011;17335;50.720;7.452;2023-08-31T09:43:38;3.45;;;1.33;;
30553;SDS011;17335;50.720;7.452;2023-08-31T09:46:05;4.00;;;1.23;;
30553;SDS011;17335;50.720;7.452;2023-08-31T09:48:33;2.42;;;1.10;;
30553;SDS011;17335;50.720;7.452;2023-08-31T09:51:04;3.78;;;1.20;;
30553;SDS011;17335;50.720;7.452;2023-08-31T09:53:31;4.28;;;1.23;;
30553;SDS011;17335;50.720;7.452;2023-08-31T09:56:00;2.88;;;1.42;;
30553;SDS011;17335;50.720;7.452;2023-08-31T09:58:28;2.40;;;1.20;;
30553;SDS011;17335;50.720;7.452;2023-08-31T10:00:57;3.45;;;1.42;;
30553;SDS011;17335;50.720;7.452;2023-08-31T10:03:25;3.88;;;1.30;;
30553;SDS011;17335;50.720;7.452;2023-08-31T10:05:53;3.05;;;1.40;;
30553;SDS011;17335;50.720;7.452;2023-08-31T10:08:20;3.60;;;1.50;;
30553;SDS011;17335;50.720;7.452;2023-08-31T10:10:47;2.72;;;1.35;;
30553;SDS011;17335;50.720;7.452;2023-08-31T10:13:15;3.33;;;1.13;;
30553;SDS011;17335;50.720;7.452;2023-08-31T10:15:44;2.13;;;1.13;;
30553;SDS011;17335;50.720;7.452;2023-08-31T10:18:11;2.30;;;1.25;;
30553;SDS011;17335;50.720;7.452;2023-08-31T10:20:40;2.35;;;1.40;;
30553;SDS011;17335;50.720;7.452;2023-08-31T10:23:09;2.75;;;1.25;;
30553;SDS011;17335;50.720;7.452;2023-08-31T10:28:19;5.40;;;1.20;;
30553;SDS011;17335;50.720;7.452;2023-08-31T10:33:39;2.78;;;1.20;;
30553;SDS011;17335;50.720;7.452;2023-08-31T10:36:17;3.40;;;1.30;;
30553;SDS011;17335;50.720;7.452;2023-08-31T10:38:59;2.53;;;1.27;;
30553;SDS011;17335;50.720;7.452;2023-08-31T10:41:33;3.83;;;1.45;;
30553;SDS011;17335;50.720;7.452;2023-08-31T10:44:23;5.25;;;1.20;;
30553;SDS011;17335;50.720;7.452;2023-08-31T10:46:52;3.60;;;1.45;;
30553;SDS011;17335;50.720;7.452;2023-08-31T10:49:20;2.83;;;1.20;;
30553;SDS011;17335;50.720;7.452;2023-08-31T10:55:04;6.60;;;1.55;;
30553;SDS011;17335;50.720;7.452;2023-08-31T10:57:31;1.88;;;1.13;;
30553;SDS011;17335;50.720;7.452;2023-08-31T11:00:01;2.45;;;1.38;;
30553;SDS011;17335;50.720;7.452;2023-08-31T11:05:08;4.45;;;1.30;;
30553;SDS011;17335;50.720;7.452;2023-08-31T11:07:35;4.22;;;1.08;;
30553;SDS011;17335;50.720;7.452;2023-08-31T11:12:47;3.70;;;1.20;;
30553;SDS011;17335;50.720;7.452;2023-08-31T11:15:17;1.58;;;0.90;;
30553;SDS011;17335;50.720;7.452;2023-08-31T11:17:45;3.35;;;1.10;;
30553;SDS011;17335;50.720;7.452;2023-08-31T11:20:14;3.88;;;1.48;;
30553;SDS011;17335;50.720;7.452;2023-08-31T11:22:44;3.40;;;1.27;;
30553;SDS011;17335;50.720;7.452;2023-08-31T11:25:13;2.83;;;1.10;;
30553;SDS011;17335;50.720;7.452;2023-08-31T11:27:40;3.53;;;1.23;;
30553;SDS011;17335;50.720;7.452;2023-08-31T11:32:46;2.33;;;1.10;;
30553;SDS011;17335;50.720;7.452;2023-08-31T11:35:14;2.33;;;1.20;;
30553;SDS011;17335;50.720;7.452;2023-08-31T11:37:43;3.00;;;1.40;;
30553;SDS011;17335;50.720;7.452;2023-08-31T11:40:13;7.40;;;1.38;;
30553;SDS011;17335;50.720;7.452;2023-08-31T11:42:43;5.20;;;1.25;;
30553;SDS011;17335;50.720;7.452;2023-08-31T11:45:11;3.85;;;1.45;;
30553;SDS011;17335;50.720;7.452;2023-08-31T11:47:40;3.17;;;1.30;;
30553;SDS011;17335;50.720;7.452;2023-08-31T11:50:10;2.30;;;1.42;;
30553;SDS011;17335;50.720;7.452;2023-08-31T11:52:37;4.43;;;1.50;;
30553;SDS011;17335;50.720;7.452;2023-08-31T11:55:10;3.65;;;1.40;;
30553;SDS011;17335;50.720;7.452;2023-08-31T11:57:38;6.35;;;1.50;;
30553;SDS011;17335;50.720;7.452;2023-08-31T12:00:05;4.15;;;1.45;;
30553;SDS011;17335;50.720;7.452;2023-08-31T12:02:35;4.03;;;1.48;;
30553;SDS011;17335;50.720;7.452;2023-08-31T12:05:02;3.28;;;1.33;;
30553;SDS011;17335;50.720;7.452;2023-08-31T12:07:31;5.15;;;1.30;;
30553;SDS011;17335;50.720;7.452;2023-08-31T12:10:04;2.08;;;1.20;;
30553;SDS011;17335;50.720;7.452;2023-08-31T12:12:31;2.80;;;1.42;;
30553;SDS011;17335;50.720;7.452;2023-08-31T12:15:01;4.18;;;1.23;;
30553;SDS011;17335;50.720;7.452;2023-08-31T12:17:30;8.30;;;1.35;;
30553;SDS011;17335;50.720;7.452;2023-08-31T12:20:03;5.00;;;1.83;;
30553;SDS011;17335;50.720;7.452;2023-08-31T12:22:31;3.78;;;1.42;;
30553;SDS011;17335;50.720;7.452;2023-08-31T12:24:58;4.40;;;1.38;;
30553;SDS011;17335;50.720;7.452;2023-08-31T12:27:24;7.35;;;1.70;;
30553;SDS011;17335;50.720;7.452;2023-08-31T12:29:52;4.88;;;1.58;;
30553;SDS011;17335;50.720;7.452;2023-08-31T12:32:19;3.08;;;1.27;;
30553;SDS011;17335;50.720;7.452;2023-08-31T12:34:45;3.60;;;1.40;;
30553;SDS011;17335;50.720;7.452;2023-08-31T12:37:12;4.60;;;1.83;;
30553;SDS011;17335;50.720;7.452;2023-08-31T12:39:39;4.47;;;1.85;;
30553;SDS011;17335;50.720;7.452;2023-08-31T12:42:08;9.80;;;1.92;;
30553;SDS011;17335;50.720;7.452;2023-08-31T12:44:48;3.60;;;1.63;;
30553;SDS011;17335;50.720;7.452;2023-08-31T12:47:15;3.15;;;1.75;;
30553;SDS011;17335;50.720;7.452;2023-08-31T12:49:41;4.15;;;2.50;;
30553;SDS011;17335;50.720;7.452;2023-08-31T12:52:08;5.72;;;1.88;;
30553;SDS011;17335;50.720;7.452;2023-08-31T12:54:34;3.28;;;1.70;;
30553;SDS011;17335;50.720;7.452;2023-08-31T12:57:01;9.05;;;1.88;;
30553;SDS011;17335;50.720;7.452;2023-08-31T12:59:28;3.03;;;1.63;;
30553;SDS011;17335;50.720;7.452;2023-08-31T13:01:55;3.80;;;1.60;;
30553;SDS011;17335;50.720;7.452;2023-08-31T13:04:21;5.07;;;1.70;;
30553;SDS011;17335;50.720;7.452;2023-08-31T13:06:49;6.38;;;1.98;;
30553;SDS011;17335;50.720;7.452;2023-08-31T13:09:16;4.13;;;1.80;;
30553;SDS011;17335;50.720;7.452;2023-08-31T13:11:42;3.25;;;1.50;;
30553;SDS011;17335;50.720;7.452;2023-08-31T13:14:09;2.95;;;1.65;;
30553;SDS011;17335;50.720;7.452;2023-08-31T13:16:37;4.70;;;1.70;;
30553;SDS011;17335;50.720;7.452;2023-08-31T13:19:05;5.22;;;1.83;;
30553;SDS011;17335;50.720;7.452;2023-08-31T13:21:32;5.30;;;1.60;;
30553;SDS011;17335;50.720;7.452;2023-08-31T13:23:58;4.75;;;1.77;;
30553;SDS011;17335;50.720;7.452;2023-08-31T13:26:26;4.32;;;1.50;;
30553;SDS011;17335;50.720;7.452;2023-08-31T13:28:53;3.47;;;1.48;;
30553;SDS011;17335;50.720;7.452;2023-08-31T13:31:20;5.63;;;1.45;;
30553;SDS011;17335;50.720;7.452;2023-08-31T13:33:47;3.15;;;1.52;;
30553;SDS011;17335;50.720;7.452;2023-08-31T13:36:16;3.17;;;1.60;;
30553;SDS011;17335;50.720;7.452;2023-08-31T13:38:42;2.90;;;1.42;;
30553;SDS011;17335;50.720;7.452;2023-08-31T13:41:09;5.53;;;1.23;;
30553;SDS011;17335;50.720;7.452;2023-08-31T13:43:36;11.05;;;2.55;;
30553;SDS011;17335;50.720;7.452;2023-08-31T13:46:02;2.38;;;1.52;;
30553;SDS011;17335;50.720;7.452;2023-08-31T13:48:30;4.93;;;1.92;;
30553;SDS011;17335;50.720;7.452;2023-08-31T13:50:59;5.47;;;2.05;;
30553;SDS011;17335;50.720;7.452;2023-08-31T13:53:25;3.40;;;1.55;;
30553;SDS011;17335;50.720;7.452;2023-08-31T13:55:52;3.97;;;1.40;;
30553;SDS011;17335;50.720;7.452;2023-08-31T13:58:19;5.07;;;1.60;;
30553;SDS011;17335;50.720;7.452;2023-08-31T14:00:45;4.25;;;1.58;;
30553;SDS011;17335;50.720;7.452;2023-08-31T14:03:12;4.72;;;1.70;;
30553;SDS011;17335;50.720;7.452;2023-08-31T14:05:38;3.45;;;1.60;;
30553;SDS011;17335;50.720;7.452;2023-08-31T14:08:05;4.30;;;1.70;;
30553;SDS011;17335;50.720;7.452;2023-08-31T14:10:32;3.03;;;1.90;;
30553;SDS011;17335;50.720;7.452;2023-08-31T14:13:01;4.32;;;1.60;;
30553;SDS011;17335;50.720;7.452;2023-08-31T14:15:28;8.25;;;1.83;;
30553;SDS011;17335;50.720;7.452;2023-08-31T14:17:54;4.95;;;1.60;;
30553;SDS011;17335;50.720;7.452;2023-08-31T14:20:21;3.75;;;1.40;;
30553;SDS011;17335;50.720;7.452;2023-08-31T14:22:48;6.18;;;1.92;;
30553;SDS011;17335;50.720;7.452;2023-08-31T14:25:15;6.50;;;1.90;;
30553;SDS011;17335;50.720;7.452;2023-08-31T14:27:42;3.47;;;1.70;;
30553;SDS011;17335;50.720;7.452;2023-08-31T14:30:09;4.05;;;1.63;;
30553;SDS011;17335;50.720;7.452;2023-08-31T14:32:35;4.43;;;1.50;;
30553;SDS011;17335;50.720;7.452;2023-08-31T14:35:02;5.18;;;1.98;;
30553;SDS011;17335;50.720;7.452;2023-08-31T14:37:30;3.17;;;1.60;;
30553;SDS011;17335;50.720;7.452;2023-08-31T14:39:57;4.20;;;1.92;;
30553;SDS011;17335;50.720;7.452;2023-08-31T14:42:24;2.95;;;1.50;;
30553;SDS011;17335;50.720;7.452;2023-08-31T14:44:50;3.40;;;1.67;;
30553;SDS011;17335;50.720;7.452;2023-08-31T14:47:17;4.43;;;1.80;;
30553;SDS011;17335;50.720;7.452;2023-08-31T14:49:43;3.17;;;1.40;;
30553;SDS011;17335;50.720;7.452;2023-08-31T14:52:09;6.55;;;1.63;;
30553;SDS011;17335;50.720;7.452;2023-08-31T14:54:36;3.17;;;1.65;;
30553;SDS011;17335;50.720;7.452;2023-08-31T14:57:03;4.43;;;1.67;;
30553;SDS011;17335;50.720;7.452;2023-08-31T14:59:30;5.40;;;2.58;;
30553;SDS011;17335;50.720;7.452;2023-08-31T15:01:56;5.03;;;2.40;;
30553;SDS011;17335;50.720;7.452;2023-08-31T15:04:23;4.65;;;2.40;;
30553;SDS011;17335;50.720;7.452;2023-08-31T15:06:51;4.55;;;2.00;;
30553;SDS011;17335;50.720;7.452;2023-08-31T15:09:19;3.80;;;1.83;;
30553;SDS011;17335;50.720;7.452;2023-08-31T15:11:46;6.97;;;2.30;;
30553;SDS011;17335;50.720;7.452;2023-08-31T15:14:13;4.25;;;1.90;;
30553;SDS011;17335;50.720;7.452;2023-08-31T15:16:40;4.97;;;2.08;;
30553;SDS011;17335;50.720;7.452;2023-08-31T15:19:07;6.63;;;2.03;;
30553;SDS011;17335;50.720;7.452;2023-08-31T15:21:34;4.43;;;2.00;;